sensor_id;sensor_type;location;lat;lon;timestamp;P1;durP1;ratioP1;P2;durP2;ratioP2
39400;SDS011;54391;50.000;7.360;2022-08-21T00:02:12;8.38;;;3.80;;
39400;SDS011;54391;50.000;7.360;2022-08-21T00:04:42;4.97;;;3.45;;
39400;SDS011;54391;50.000;7.360;2022-08-21T00:07:10;11.90;;;4.25;;
39400;SDS011;54391;50.000;7.360;2022-08-21T00:09:37;10.18;;;4.60;;
39400;SDS011;54391;50.000;7.360;2022-08-21T00:12:05;11.48;;;4.63;;
39400;SDS011;54391;50.000;7.360;2022-08-21T00:14:33;10.88;;;4.20;;
39400;SDS011;54391;50.000;7.360;2022-08-21T00:17:01;13.80;;;4.45;;
39400;SDS011;54391;50.000;7.360;2022-08-21T00:19:29;11.48;;;4.25;;
39400;SDS011;54391;50.000;7.360;2022-08-21T00:21:58;9.98;;;3.60;;
39400;SDS011;54391;50.000;7.360;2022-08-21T00:24:25;13.30;;;4.63;;
39400;SDS011;54391;50.000;7.360;2022-08-21T00:26:53;11.80;;;4.00;;
39400;SDS011;54391;50.000;7.360;2022-08-21T00:29:20;8.52;;;4.20;;
39400;SDS011;54391;50.000;7.360;2022-08-21T00:31:47;14.18;;;3.58;;
39400;SDS011;54391;50.000;7.360;2022-08-21T00:34:16;8.50;;;3.83;;
39400;SDS011;54391;50.000;7.360;2022-08-21T00:36:43;12.25;;;4.30;;
39400;SDS011;54391;50.000;7.360;2022-08-21T00:39:12;10.45;;;4.78;;
39400;SDS011;54391;50.000;7.360;2022-08-21T00:41:40;11.23;;;4.82;;
39400;SDS011;54391;50.000;7.360;2022-08-21T00:44:09;11.95;;;4.93;;
39400;SDS011;54391;50.000;7.360;2022-08-21T00:46:38;12.18;;;4.03;;
39400;SDS011;54391;50.000;7.360;2022-08-21T00:49:07;17.55;;;5.25;;
39400;SDS011;54391;50.000;7.360;2022-08-21T00:51:36;10.85;;;4.13;;
39400;SDS011;54391;50.000;7.360;2022-08-21T00:54:07;10.25;;;4.05;;
39400;SDS011;54391;50.000;7.360;2022-08-21T00:56:39;13.00;;;4.93;;
39400;SDS011;54391;50.000;7.360;2022-08-21T00:59:07;11.95;;;4.38;;
39400;SDS011;54391;50.000;7.360;2022-08-21T01:01:34;13.27;;;4.20;;
39400;SDS011;54391;50.000;7.360;2022-08-21T01:04:02;11.20;;;3.97;;
39400;SDS011;54391;50.000;7.360;2022-08-21T01:06:30;6.80;;;4.03;;
39400;SDS011;54391;50.000;7.360;2022-08-21T01:08:57;7.57;;;4.20;;
39400;SDS011;54391;50.000;7.360;2022-08-21T01:11:25;11.55;;;4.95;;
39400;SDS011;54391;50.000;7.360;2022-08-21T01:13:54;12.40;;;5.40;;
39400;SDS011;54391;50.000;7.360;2022-08-21T01:16:21;9.82;;;4.28;;
39400;SDS011;54391;50.000;7.360;2022-08-21T01:18:49;10.48;;;4.95;;
39400;SDS011;54391;50.000;7.360;2022-08-21T01:21:19;12.80;;;4.70;;
39400;SDS011;54391;50.000;7.360;2022-08-21T01:23:50;11.23;;;4.80;;
39400;SDS011;54391;50.000;7.360;2022-08-21T01:26:20;9.65;;;4.25;;
39400;SDS011;54391;50.000;7.360;2022-08-21T01:28:51;9.38;;;4.00;;
39400;SDS011;54391;50.000;7.360;2022-08-21T01:31:23;15.70;;;4.60;;
39400;SDS011;54391;50.000;7.360;2022-08-21T01:33:53;13.55;;;4.45;;
39400;SDS011;54391;50.000;7.360;2022-08-21T01:36:23;10.95;;;4.15;;
39400;SDS011;54391;50.000;7.360;2022-08-21T01:38:51;7.40;;;3.83;;
39400;SDS011;54391;50.000;7.360;2022-08-21T01:41:19;8.27;;;4.35;;
39400;SDS011;54391;50.000;7.360;2022-08-21T01:43:46;9.40;;;4.38;;
39400;SDS011;54391;50.000;7.360;2022-08-21T01:46:13;9.82;;;4.13;;
39400;SDS011;54391;50.000;7.360;2022-08-21T01:48:43;11.43;;;4.40;;
39400;SDS011;54391;50.000;7.360;2022-08-21T01:51:10;8.65;;;4.20;;
39400;SDS011;54391;50.000;7.360;2022-08-21T01:53:39;11.68;;;4.40;;
39400;SDS011;54391;50.000;7.360;2022-08-21T01:56:08;10.85;;;4.00;;
39400;SDS011;54391;50.000;7.360;2022-08-21T01:58:37;11.38;;;4.30;;
39400;SDS011;54391;50.000;7.360;2022-08-21T02:01:05;10.55;;;4.25;;
39400;SDS011;54391;50.000;7.360;2022-08-21T02:03:32;8.82;;;4.15;;
39400;SDS011;54391;50.000;7.360;2022-08-21T02:06:00;12.23;;;4.10;;
39400;SDS011;54391;50.000;7.360;2022-08-21T02:08:28;8.35;;;4.47;;
39400;SDS011;54391;50.000;7.360;2022-08-21T02:10:56;10.68;;;4.00;;
39400;SDS011;54391;50.000;7.360;2022-08-21T02:13:24;9.73;;;4.32;;
39400;SDS011;54391;50.000;7.360;2022-08-21T02:15:51;9.57;;;4.05;;
39400;SDS011;54391;50.000;7.360;2022-08-21T02:18:18;8.98;;;3.92;;
39400;SDS011;54391;50.000;7.360;2022-08-21T02:20:47;9.05;;;4.30;;
39400;SDS011;54391;50.000;7.360;2022-08-21T02:23:15;13.05;;;4.93;;
39400;SDS011;54391;50.000;7.360;2022-08-21T02:25:43;13.35;;;5.30;;
39400;SDS011;54391;50.000;7.360;2022-08-21T02:28:13;11.45;;;5.30;;
39400;SDS011;54391;50.000;7.360;2022-08-21T02:30:42;10.65;;;4.95;;
39400;SDS011;54391;50.000;7.360;2022-08-21T02:33:11;11.85;;;4.57;;
39400;SDS011;54391;50.000;7.360;2022-08-21T02:35:40;10.70;;;3.95;;
39400;SDS011;54391;50.000;7.360;2022-08-21T02:38:09;10.82;;;4.47;;
39400;SDS011;54391;50.000;7.360;2022-08-21T02:40:38;9.43;;;4.43;;
39400;SDS011;54391;50.000;7.360;2022-08-21T02:43:07;12.63;;;4.18;;
39400;SDS011;54391;50.000;7.360;2022-08-21T02:45:36;10.98;;;5.10;;
39400;SDS011;54391;50.000;7.360;2022-08-21T02:48:05;11.35;;;4.90;;
39400;SDS011;54391;50.000;7.360;2022-08-21T02:50:36;12.02;;;5.13;;
39400;SDS011;54391;50.000;7.360;2022-08-21T02:53:05;11.45;;;4.20;;
39400;SDS011;54391;50.000;7.360;2022-08-21T02:55:33;11.55;;;4.30;;
39400;SDS011;54391;50.000;7.360;2022-08-21T02:58:02;9.80;;;4.20;;
39400;SDS011;54391;50.000;7.360;2022-08-21T03:00:31;9.60;;;3.92;;
39400;SDS011;54391;50.000;7.360;2022-08-21T03:03:00;7.85;;;4.03;;
39400;SDS011;54391;50.000;7.360;2022-08-21T03:05:29;12.20;;;4.43;;
39400;SDS011;54391;50.000;7.360;2022-08-21T03:07:58;10.40;;;4.88;;
39400;SDS011;54391;50.000;7.360;2022-08-21T03:10:27;13.48;;;4.97;;
39400;SDS011;54391;50.000;7.360;2022-08-21T03:12:56;14.80;;;4.47;;
39400;SDS011;54391;50.000;7.360;2022-08-21T03:15:23;13.90;;;4.20;;
39400;SDS011;54391;50.000;7.360;2022-08-21T03:17:51;11.55;;;4.35;;
39400;SDS011;54391;50.000;7.360;2022-08-21T03:20:22;9.27;;;4.28;;
39400;SDS011;54391;50.000;7.360;2022-08-21T03:22:52;9.15;;;4.50;;
39400;SDS011;54391;50.000;7.360;2022-08-21T03:25:20;9.85;;;4.32;;
39400;SDS011;54391;50.000;7.360;2022-08-21T03:27:48;12.18;;;4.50;;
39400;SDS011;54391;50.000;7.360;2022-08-21T03:30:16;10.63;;;4.35;;
39400;SDS011;54391;50.000;7.360;2022-08-21T03:32:45;10.52;;;4.18;;
39400;SDS011;54391;50.000;7.360;2022-08-21T03:35:12;8.25;;;4.25;;
39400;SDS011;54391;50.000;7.360;2022-08-21T03:37:41;10.35;;;5.07;;
39400;SDS011;54391;50.000;7.360;2022-08-21T03:40:10;8.02;;;4.38;;
39400;SDS011;54391;50.000;7.360;2022-08-21T03:42:38;12.52;;;5.18;;
39400;SDS011;54391;50.000;7.360;2022-08-21T03:45:06;12.75;;;5.07;;
39400;SDS011;54391;50.000;7.360;2022-08-21T03:47:35;11.50;;;5.45;;
39400;SDS011;54391;50.000;7.360;2022-08-21T03:50:02;15.10;;;4.82;;
39400;SDS011;54391;50.000;7.360;2022-08-21T03:52:31;14.65;;;4.55;;
39400;SDS011;54391;50.000;7.360;2022-08-21T03:54:59;10.32;;;4.57;;
39400;SDS011;54391;50.000;7.360;2022-08-21T03:57:29;9.30;;;4.35;;
39400;SDS011;54391;50.000;7.360;2022-08-21T03:59:57;10.68;;;4.65;;
39400;SDS011;54391;50.000;7.360;2022-08-21T04:02:24;9.30;;;4.43;;
39400;SDS011;54391;50.000;7.360;2022-08-21T04:04:52;9.20;;;4.35;;
39400;SDS011;54391;50.000;7.360;2022-08-21T04:07:19;10.95;;;4.97;;
39400;SDS011;54391;50.000;7.360;2022-08-21T04:09:47;9.73;;;4.28;;
39400;SDS011;54391;50.000;7.360;2022-08-21T04:12:15;13.23;;;5.15;;
39400;SDS011;54391;50.000;7.360;2022-08-21T04:14:43;11.57;;;4.47;;
39400;SDS011;54391;50.000;7.360;2022-08-21T04:17:10;10.05;;;4.53;;
39400;SDS011;54391;50.000;7.360;2022-08-21T04:19:38;16.63;;;4.85;;
39400;SDS011;54391;50.000;7.360;2022-08-21T04:22:05;11.57;;;4.03;;
39400;SDS011;54391;50.000;7.360;2022-08-21T04:24:32;9.43;;;4.15;;
39400;SDS011;54391;50.000;7.360;2022-08-21T04:27:00;10.70;;;4.43;;
39400;SDS011;54391;50.000;7.360;2022-08-21T04:29:30;10.77;;;4.88;;
39400;SDS011;54391;50.000;7.360;2022-08-21T04:31:57;11.88;;;4.43;;
39400;SDS011;54391;50.000;7.360;2022-08-21T04:34:25;11.45;;;4.47;;
39400;SDS011;54391;50.000;7.360;2022-08-21T04:36:52;8.32;;;4.75;;
39400;SDS011;54391;50.000;7.360;2022-08-21T04:39:19;13.60;;;4.85;;
39400;SDS011;54391;50.000;7.360;2022-08-21T04:41:47;10.43;;;4.13;;
39400;SDS011;54391;50.000;7.360;2022-08-21T04:44:14;12.13;;;4.10;;
39400;SDS011;54391;50.000;7.360;2022-08-21T04:46:43;12.18;;;4.70;;
39400;SDS011;54391;50.000;7.360;2022-08-21T04:49:10;10.55;;;4.75;;
39400;SDS011;54391;50.000;7.360;2022-08-21T04:51:37;10.05;;;5.10;;
39400;SDS011;54391;50.000;7.360;2022-08-21T04:54:07;9.38;;;4.05;;
39400;SDS011;54391;50.000;7.360;2022-08-21T04:56:37;17.20;;;5.03;;
39400;SDS011;54391;50.000;7.360;2022-08-21T04:59:11;9.07;;;4.40;;
39400;SDS011;54391;50.000;7.360;2022-08-21T05:01:44;15.07;;;4.55;;
39400;SDS011;54391;50.000;7.360;2022-08-21T05:04:12;9.30;;;4.82;;
39400;SDS011;54391;50.000;7.360;2022-08-21T05:06:43;8.68;;;4.45;;
39400;SDS011;54391;50.000;7.360;2022-08-21T05:09:13;7.85;;;4.68;;
39400;SDS011;54391;50.000;7.360;2022-08-21T05:11:42;11.32;;;4.78;;
39400;SDS011;54391;50.000;7.360;2022-08-21T05:14:10;12.13;;;4.90;;
39400;SDS011;54391;50.000;7.360;2022-08-21T05:16:38;11.27;;;4.78;;
39400;SDS011;54391;50.000;7.360;2022-08-21T05:19:08;8.43;;;4.25;;
39400;SDS011;54391;50.000;7.360;2022-08-21T05:21:41;10.25;;;4.43;;
39400;SDS011;54391;50.000;7.360;2022-08-21T05:24:10;8.38;;;4.88;;
39400;SDS011;54391;50.000;7.360;2022-08-21T05:26:38;13.00;;;4.85;;
39400;SDS011;54391;50.000;7.360;2022-08-21T05:29:05;11.23;;;4.60;;
39400;SDS011;54391;50.000;7.360;2022-08-21T05:31:33;11.52;;;4.60;;
39400;SDS011;54391;50.000;7.360;2022-08-21T05:34:00;12.95;;;4.35;;
39400;SDS011;54391;50.000;7.360;2022-08-21T05:36:29;9.13;;;4.15;;
39400;SDS011;54391;50.000;7.360;2022-08-21T05:38:57;10.70;;;5.10;;
39400;SDS011;54391;50.000;7.360;2022-08-21T05:41:24;9.30;;;4.57;;
39400;SDS011;54391;50.000;7.360;2022-08-21T05:43:52;10.05;;;4.50;;
39400;SDS011;54391;50.000;7.360;2022-08-21T05:46:19;10.85;;;4.78;;
39400;SDS011;54391;50.000;7.360;2022-08-21T05:48:47;12.88;;;4.72;;
39400;SDS011;54391;50.000;7.360;2022-08-21T05:51:14;10.73;;;4.63;;
39400;SDS011;54391;50.000;7.360;2022-08-21T05:53:44;10.10;;;4.78;;
39400;SDS011;54391;50.000;7.360;2022-08-21T05:56:13;9.57;;;4.20;;
39400;SDS011;54391;50.000;7.360;2022-08-21T05:58:41;12.27;;;4.60;;
39400;SDS011;54391;50.000;7.360;2022-08-21T06:01:08;12.95;;;4.43;;
39400;SDS011;54391;50.000;7.360;2022-08-21T06:03:38;8.15;;;3.90;;
39400;SDS011;54391;50.000;7.360;2022-08-21T06:06:06;10.95;;;4.05;;
39400;SDS011;54391;50.000;7.360;2022-08-21T06:08:34;9.40;;;4.10;;
39400;SDS011;54391;50.000;7.360;2022-08-21T06:11:03;10.43;;;3.95;;
39400;SDS011;54391;50.000;7.360;2022-08-21T06:13:32;8.57;;;3.38;;
39400;SDS011;54391;50.000;7.360;2022-08-21T06:16:00;9.32;;;3.70;;
39400;SDS011;54391;50.000;7.360;2022-08-21T06:18:30;10.88;;;3.75;;
39400;SDS011;54391;50.000;7.360;2022-08-21T06:20:57;8.05;;;3.63;;
39400;SDS011;54391;50.000;7.360;2022-08-21T06:23:25;9.40;;;4.35;;
39400;SDS011;54391;50.000;7.360;2022-08-21T06:25:52;8.68;;;3.80;;
39400;SDS011;54391;50.000;7.360;2022-08-21T06:28:21;9.80;;;3.65;;
39400;SDS011;54391;50.000;7.360;2022-08-21T06:30:48;9.88;;;3.88;;
39400;SDS011;54391;50.000;7.360;2022-08-21T06:33:16;7.22;;;3.75;;
39400;SDS011;54391;50.000;7.360;2022-08-21T06:35:43;10.32;;;3.60;;
39400;SDS011;54391;50.000;7.360;2022-08-21T06:38:11;7.63;;;3.30;;
39400;SDS011;54391;50.000;7.360;2022-08-21T06:40:38;6.47;;;3.38;;
39400;SDS011;54391;50.000;7.360;2022-08-21T06:43:06;8.10;;;3.28;;
39400;SDS011;54391;50.000;7.360;2022-08-21T06:45:36;7.70;;;3.05;;
39400;SDS011;54391;50.000;7.360;2022-08-21T06:48:04;6.38;;;3.75;;
39400;SDS011;54391;50.000;7.360;2022-08-21T06:50:33;10.23;;;2.88;;
39400;SDS011;54391;50.000;7.360;2022-08-21T06:53:02;7.10;;;3.00;;
39400;SDS011;54391;50.000;7.360;2022-08-21T06:55:32;11.48;;;3.78;;
39400;SDS011;54391;50.000;7.360;2022-08-21T06:57:59;8.07;;;3.35;;
39400;SDS011;54391;50.000;7.360;2022-08-21T07:00:30;7.53;;;3.60;;
39400;SDS011;54391;50.000;7.360;2022-08-21T07:02:59;7.63;;;3.40;;
39400;SDS011;54391;50.000;7.360;2022-08-21T07:05:29;7.50;;;3.20;;
39400;SDS011;54391;50.000;7.360;2022-08-21T07:07:57;8.25;;;3.65;;
39400;SDS011;54391;50.000;7.360;2022-08-21T07:10:25;9.10;;;3.72;;
39400;SDS011;54391;50.000;7.360;2022-08-21T07:12:53;9.65;;;3.65;;
39400;SDS011;54391;50.000;7.360;2022-08-21T07:15:21;10.50;;;3.63;;
39400;SDS011;54391;50.000;7.360;2022-08-21T07:17:48;6.07;;;3.13;;
39400;SDS011;54391;50.000;7.360;2022-08-21T07:20:17;7.55;;;3.63;;
39400;SDS011;54391;50.000;7.360;2022-08-21T07:22:44;8.23;;;3.33;;
39400;SDS011;54391;50.000;7.360;2022-08-21T07:25:12;9.00;;;3.42;;
39400;SDS011;54391;50.000;7.360;2022-08-21T07:27:39;8.68;;;4.15;;
39400;SDS011;54391;50.000;7.360;2022-08-21T07:30:07;10.88;;;3.90;;
39400;SDS011;54391;50.000;7.360;2022-08-21T07:32:35;8.02;;;3.80;;
39400;SDS011;54391;50.000;7.360;2022-08-21T07:35:02;8.82;;;3.53;;
39400;SDS011;54391;50.000;7.360;2022-08-21T07:37:32;8.73;;;3.92;;
39400;SDS011;54391;50.000;7.360;2022-08-21T07:39:59;9.07;;;4.38;;
39400;SDS011;54391;50.000;7.360;2022-08-21T07:42:26;10.38;;;4.30;;
39400;SDS011;54391;50.000;7.360;2022-08-21T07:44:54;11.13;;;3.70;;
39400;SDS011;54391;50.000;7.360;2022-08-21T07:47:22;9.63;;;4.38;;
39400;SDS011;54391;50.000;7.360;2022-08-21T07:49:49;11.57;;;4.75;;
39400;SDS011;54391;50.000;7.360;2022-08-21T07:52:16;14.63;;;4.30;;
39400;SDS011;54391;50.000;7.360;2022-08-21T07:54:46;13.77;;;4.32;;
39400;SDS011;54391;50.000;7.360;2022-08-21T07:57:13;8.82;;;4.10;;
39400;SDS011;54391;50.000;7.360;2022-08-21T07:59:41;13.00;;;3.80;;
39400;SDS011;54391;50.000;7.360;2022-08-21T08:02:08;9.43;;;3.55;;
39400;SDS011;54391;50.000;7.360;2022-08-21T08:04:36;8.15;;;3.47;;
39400;SDS011;54391;50.000;7.360;2022-08-21T08:07:03;10.27;;;3.08;;
39400;SDS011;54391;50.000;7.360;2022-08-21T08:09:30;5.25;;;2.17;;
39400;SDS011;54391;50.000;7.360;2022-08-21T08:11:59;6.10;;;2.45;;
39400;SDS011;54391;50.000;7.360;2022-08-21T08:14:29;8.93;;;3.03;;
39400;SDS011;54391;50.000;7.360;2022-08-21T08:16:57;9.25;;;2.25;;
39400;SDS011;54391;50.000;7.360;2022-08-21T08:19:25;7.68;;;2.50;;
39400;SDS011;54391;50.000;7.360;2022-08-21T08:21:52;7.78;;;2.30;;
39400;SDS011;54391;50.000;7.360;2022-08-21T08:24:19;8.02;;;2.55;;
39400;SDS011;54391;50.000;7.360;2022-08-21T08:26:47;8.45;;;3.25;;
39400;SDS011;54391;50.000;7.360;2022-08-21T08:29:16;8.63;;;3.00;;
39400;SDS011;54391;50.000;7.360;2022-08-21T08:31:43;6.65;;;2.45;;
39400;SDS011;54391;50.000;7.360;2022-08-21T08:34:10;10.55;;;3.13;;
39400;SDS011;54391;50.000;7.360;2022-08-21T08:36:38;6.93;;;2.28;;
39400;SDS011;54391;50.000;7.360;2022-08-21T08:39:05;8.20;;;2.45;;
39400;SDS011;54391;50.000;7.360;2022-08-21T08:41:32;7.65;;;2.50;;
39400;SDS011;54391;50.000;7.360;2022-08-21T08:44:02;6.20;;;2.40;;
39400;SDS011;54391;50.000;7.360;2022-08-21T08:46:35;7.53;;;2.58;;
39400;SDS011;54391;50.000;7.360;2022-08-21T08:49:06;3.67;;;2.00;;
39400;SDS011;54391;50.000;7.360;2022-08-21T08:51:39;8.15;;;2.53;;
39400;SDS011;54391;50.000;7.360;2022-08-21T08:54:11;9.43;;;2.67;;
39400;SDS011;54391;50.000;7.360;2022-08-21T08:56:44;7.80;;;2.72;;
39400;SDS011;54391;50.000;7.360;2022-08-21T08:59:13;6.22;;;2.22;;
39400;SDS011;54391;50.000;7.360;2022-08-21T09:01:45;9.10;;;2.55;;
39400;SDS011;54391;50.000;7.360;2022-08-21T09:04:13;4.75;;;1.98;;
39400;SDS011;54391;50.000;7.360;2022-08-21T09:06:51;7.13;;;2.33;;
39400;SDS011;54391;50.000;7.360;2022-08-21T09:09:28;9.23;;;2.63;;
39400;SDS011;54391;50.000;7.360;2022-08-21T09:12:02;8.40;;;2.28;;
39400;SDS011;54391;50.000;7.360;2022-08-21T09:14:45;5.95;;;2.15;;
39400;SDS011;54391;50.000;7.360;2022-08-21T09:17:27;9.32;;;2.17;;
39400;SDS011;54391;50.000;7.360;2022-08-21T09:20:08;6.72;;;2.33;;
39400;SDS011;54391;50.000;7.360;2022-08-21T09:22:46;10.23;;;2.78;;
39400;SDS011;54391;50.000;7.360;2022-08-21T09:25:23;8.00;;;2.03;;
39400;SDS011;54391;50.000;7.360;2022-08-21T09:27:52;5.75;;;2.10;;
39400;SDS011;54391;50.000;7.360;2022-08-21T09:30:26;5.32;;;2.53;;
39400;SDS011;54391;50.000;7.360;2022-08-21T09:32:57;8.32;;;2.28;;
39400;SDS011;54391;50.000;7.360;2022-08-21T09:35:25;5.40;;;2.33;;
39400;SDS011;54391;50.000;7.360;2022-08-21T09:37:53;5.65;;;2.00;;
39400;SDS011;54391;50.000;7.360;2022-08-21T09:40:31;12.60;;;2.40;;
39400;SDS011;54391;50.000;7.360;2022-08-21T09:43:03;8.35;;;2.53;;
39400;SDS011;54391;50.000;7.360;2022-08-21T09:45:33;6.13;;;2.25;;
39400;SDS011;54391;50.000;7.360;2022-08-21T09:48:09;5.35;;;1.90;;
39400;SDS011;54391;50.000;7.360;2022-08-21T09:50:38;5.40;;;2.30;;
39400;SDS011;54391;50.000;7.360;2022-08-21T09:53:13;7.80;;;2.28;;
39400;SDS011;54391;50.000;7.360;2022-08-21T09:55:51;4.90;;;1.98;;
39400;SDS011;54391;50.000;7.360;2022-08-21T09:58:49;9.23;;;2.05;;
39400;SDS011;54391;50.000;7.360;2022-08-21T10:01:18;8.70;;;2.22;;
39400;SDS011;54391;50.000;7.360;2022-08-21T10:03:48;6.05;;;1.83;;
39400;SDS011;54391;50.000;7.360;2022-08-21T10:06:21;5.97;;;1.85;;
39400;SDS011;54391;50.000;7.360;2022-08-21T10:08:50;6.22;;;2.35;;
39400;SDS011;54391;50.000;7.360;2022-08-21T10:11:18;4.05;;;1.95;;
39400;SDS011;54391;50.000;7.360;2022-08-21T10:13:55;7.07;;;2.30;;
39400;SDS011;54391;50.000;7.360;2022-08-21T10:16:30;6.13;;;2.08;;
39400;SDS011;54391;50.000;7.360;2022-08-21T10:19:09;7.20;;;2.22;;
39400;SDS011;54391;50.000;7.360;2022-08-21T10:21:46;5.00;;;1.90;;
39400;SDS011;54391;50.000;7.360;2022-08-21T10:24:25;7.57;;;2.42;;
39400;SDS011;54391;50.000;7.360;2022-08-21T10:27:02;3.72;;;1.83;;
39400;SDS011;54391;50.000;7.360;2022-08-21T10:29:43;5.57;;;1.92;;
39400;SDS011;54391;50.000;7.360;2022-08-21T10:32:20;4.28;;;1.70;;
39400;SDS011;54391;50.000;7.360;2022-08-21T10:34:59;6.68;;;1.85;;
39400;SDS011;54391;50.000;7.360;2022-08-21T10:37:36;6.25;;;2.10;;
39400;SDS011;54391;50.000;7.360;2022-08-21T10:40:12;7.68;;;2.20;;
39400;SDS011;54391;50.000;7.360;2022-08-21T10:42:49;4.25;;;2.00;;
39400;SDS011;54391;50.000;7.360;2022-08-21T10:45:27;6.20;;;2.42;;
39400;SDS011;54391;50.000;7.360;2022-08-21T10:48:06;12.40;;;3.42;;
39400;SDS011;54391;50.000;7.360;2022-08-21T10:50:42;6.30;;;1.88;;
39400;SDS011;54391;50.000;7.360;2022-08-21T10:53:16;6.82;;;2.40;;
39400;SDS011;54391;50.000;7.360;2022-08-21T10:55:55;6.93;;;1.98;;
39400;SDS011;54391;50.000;7.360;2022-08-21T10:58:28;5.88;;;2.08;;
39400;SDS011;54391;50.000;7.360;2022-08-21T11:00:58;5.18;;;1.90;;
39400;SDS011;54391;50.000;7.360;2022-08-21T11:03:37;7.30;;;2.17;;
39400;SDS011;54391;50.000;7.360;2022-08-21T11:06:11;5.43;;;2.17;;
39400;SDS011;54391;50.000;7.360;2022-08-21T11:08:41;9.43;;;2.08;;
39400;SDS011;54391;50.000;7.360;2022-08-21T11:11:12;8.75;;;2.30;;
39400;SDS011;54391;50.000;7.360;2022-08-21T11:13:46;7.25;;;1.92;;
39400;SDS011;54391;50.000;7.360;2022-08-21T11:16:18;4.97;;;1.88;;
39400;SDS011;54391;50.000;7.360;2022-08-21T11:18:53;3.25;;;1.58;;
39400;SDS011;54391;50.000;7.360;2022-08-21T11:21:29;5.13;;;1.87;;
39400;SDS011;54391;50.000;7.360;2022-08-21T11:24:05;4.13;;;1.55;;
39400;SDS011;54391;50.000;7.360;2022-08-21T11:26:44;5.35;;;2.33;;
39400;SDS011;54391;50.000;7.360;2022-08-21T11:29:17;5.05;;;1.98;;
39400;SDS011;54391;50.000;7.360;2022-08-21T11:31:54;5.45;;;2.28;;
39400;SDS011;54391;50.000;7.360;2022-08-21T11:34:38;5.55;;;1.88;;
39400;SDS011;54391;50.000;7.360;2022-08-21T11:40:12;9.02;;;1.58;;
39400;SDS011;54391;50.000;7.360;2022-08-21T11:42:49;3.90;;;1.53;;
39400;SDS011;54391;50.000;7.360;2022-08-21T11:45:23;2.75;;;1.42;;
39400;SDS011;54391;50.000;7.360;2022-08-21T11:47:56;3.97;;;1.88;;
39400;SDS011;54391;50.000;7.360;2022-08-21T11:50:32;5.40;;;1.63;;
39400;SDS011;54391;50.000;7.360;2022-08-21T11:53:06;4.78;;;1.45;;
39400;SDS011;54391;50.000;7.360;2022-08-21T11:55:38;5.28;;;1.48;;
39400;SDS011;54391;50.000;7.360;2022-08-21T11:58:11;5.47;;;1.70;;
39400;SDS011;54391;50.000;7.360;2022-08-21T12:00:47;5.13;;;1.98;;
39400;SDS011;54391;50.000;7.360;2022-08-21T12:03:22;4.68;;;1.50;;
39400;SDS011;54391;50.000;7.360;2022-08-21T12:05:55;3.83;;;1.75;;
39400;SDS011;54391;50.000;7.360;2022-08-21T12:08:30;4.00;;;1.40;;
39400;SDS011;54391;50.000;7.360;2022-08-21T12:11:01;2.70;;;1.27;;
39400;SDS011;54391;50.000;7.360;2022-08-21T12:13:31;4.85;;;1.45;;
39400;SDS011;54391;50.000;7.360;2022-08-21T12:16:07;4.15;;;1.42;;
39400;SDS011;54391;50.000;7.360;2022-08-21T12:18:36;5.18;;;1.77;;
39400;SDS011;54391;50.000;7.360;2022-08-21T12:21:05;4.55;;;1.67;;
39400;SDS011;54391;50.000;7.360;2022-08-21T12:23:49;3.45;;;1.40;;
39400;SDS011;54391;50.000;7.360;2022-08-21T12:26:28;3.70;;;1.52;;
39400;SDS011;54391;50.000;7.360;2022-08-21T12:29:04;2.30;;;1.25;;
39400;SDS011;54391;50.000;7.360;2022-08-21T12:31:36;3.40;;;1.33;;
39400;SDS011;54391;50.000;7.360;2022-08-21T12:34:15;3.70;;;1.30;;
39400;SDS011;54391;50.000;7.360;2022-08-21T12:36:45;5.53;;;1.70;;
39400;SDS011;54391;50.000;7.360;2022-08-21T12:39:23;4.50;;;1.63;;
39400;SDS011;54391;50.000;7.360;2022-08-21T12:41:53;3.95;;;1.30;;
39400;SDS011;54391;50.000;7.360;2022-08-21T12:44:28;3.75;;;1.55;;
39400;SDS011;54391;50.000;7.360;2022-08-21T12:47:03;3.60;;;1.80;;
39400;SDS011;54391;50.000;7.360;2022-08-21T12:49:33;5.07;;;1.40;;
39400;SDS011;54391;50.000;7.360;2022-08-21T12:52:03;2.58;;;1.20;;
39400;SDS011;54391;50.000;7.360;2022-08-21T12:54:41;6.63;;;1.67;;
39400;SDS011;54391;50.000;7.360;2022-08-21T12:57:17;2.80;;;1.27;;
39400;SDS011;54391;50.000;7.360;2022-08-21T12:59:51;4.50;;;1.52;;
39400;SDS011;54391;50.000;7.360;2022-08-21T13:02:20;3.05;;;1.40;;
39400;SDS011;54391;50.000;7.360;2022-08-21T13:04:50;3.45;;;1.30;;
39400;SDS011;54391;50.000;7.360;2022-08-21T13:07:22;2.45;;;1.45;;
39400;SDS011;54391;50.000;7.360;2022-08-21T13:09:55;2.70;;;1.40;;
39400;SDS011;54391;50.000;7.360;2022-08-21T13:12:28;4.72;;;1.60;;
39400;SDS011;54391;50.000;7.360;2022-08-21T13:14:57;3.00;;;1.27;;
39400;SDS011;54391;50.000;7.360;2022-08-21T13:17:30;2.13;;;1.38;;
39400;SDS011;54391;50.000;7.360;2022-08-21T13:20:03;3.70;;;1.30;;
39400;SDS011;54391;50.000;7.360;2022-08-21T13:22:32;2.45;;;1.05;;
39400;SDS011;54391;50.000;7.360;2022-08-21T13:25:11;3.17;;;1.77;;
39400;SDS011;54391;50.000;7.360;2022-08-21T13:27:39;4.28;;;1.40;;
39400;SDS011;54391;50.000;7.360;2022-08-21T13:30:08;3.53;;;1.48;;
39400;SDS011;54391;50.000;7.360;2022-08-21T13:32:39;2.83;;;1.05;;
39400;SDS011;54391;50.000;7.360;2022-08-21T13:35:14;2.95;;;1.27;;
39400;SDS011;54391;50.000;7.360;2022-08-21T13:37:44;5.13;;;1.55;;
39400;SDS011;54391;50.000;7.360;2022-08-21T13:40:16;3.17;;;1.17;;
39400;SDS011;54391;50.000;7.360;2022-08-21T13:42:46;2.15;;;1.05;;
39400;SDS011;54391;50.000;7.360;2022-08-21T13:45:16;3.60;;;1.50;;
39400;SDS011;54391;50.000;7.360;2022-08-21T13:47:49;3.47;;;1.00;;
39400;SDS011;54391;50.000;7.360;2022-08-21T13:50:18;4.13;;;1.40;;
39400;SDS011;54391;50.000;7.360;2022-08-21T13:52:57;5.00;;;1.30;;
39400;SDS011;54391;50.000;7.360;2022-08-21T13:55:35;3.58;;;1.20;;
39400;SDS011;54391;50.000;7.360;2022-08-21T13:58:06;2.38;;;1.10;;
39400;SDS011;54391;50.000;7.360;2022-08-21T14:00:42;2.35;;;1.10;;
39400;SDS011;54391;50.000;7.360;2022-08-21T14:03:11;2.92;;;1.42;;
39400;SDS011;54391;50.000;7.360;2022-08-21T14:05:54;4.03;;;1.40;;
39400;SDS011;54391;50.000;7.360;2022-08-21T14:08:23;3.22;;;1.10;;
39400;SDS011;54391;50.000;7.360;2022-08-21T14:10:56;4.45;;;1.40;;
39400;SDS011;54391;50.000;7.360;2022-08-21T14:13:29;2.55;;;1.27;;
39400;SDS011;54391;50.000;7.360;2022-08-21T14:16:08;2.70;;;1.48;;
39400;SDS011;54391;50.000;7.360;2022-08-21T14:18:49;3.58;;;1.52;;
39400;SDS011;54391;50.000;7.360;2022-08-21T14:21:24;3.72;;;1.35;;
39400;SDS011;54391;50.000;7.360;2022-08-21T14:24:06;4.05;;;1.60;;
39400;SDS011;54391;50.000;7.360;2022-08-21T14:26:41;5.55;;;1.60;;
39400;SDS011;54391;50.000;7.360;2022-08-21T14:29:16;6.07;;;2.05;;
39400;SDS011;54391;50.000;7.360;2022-08-21T14:31:48;3.92;;;1.73;;
39400;SDS011;54391;50.000;7.360;2022-08-21T14:34:17;2.40;;;1.40;;
39400;SDS011;54391;50.000;7.360;2022-08-21T14:36:45;4.25;;;1.50;;
39400;SDS011;54391;50.000;7.360;2022-08-21T14:39:13;4.05;;;1.48;;
39400;SDS011;54391;50.000;7.360;2022-08-21T14:41:41;7.78;;;1.63;;
39400;SDS011;54391;50.000;7.360;2022-08-21T14:44:11;4.25;;;1.42;;
39400;SDS011;54391;50.000;7.360;2022-08-21T14:46:39;2.97;;;1.33;;
39400;SDS011;54391;50.000;7.360;2022-08-21T14:49:06;5.05;;;1.52;;
39400;SDS011;54391;50.000;7.360;2022-08-21T14:51:34;4.63;;;1.50;;
39400;SDS011;54391;50.000;7.360;2022-08-21T14:54:02;4.78;;;1.58;;
39400;SDS011;54391;50.000;7.360;2022-08-21T14:56:29;2.67;;;1.23;;
39400;SDS011;54391;50.000;7.360;2022-08-21T14:59:00;4.03;;;1.52;;
39400;SDS011;54391;50.000;7.360;2022-08-21T15:01:31;3.65;;;1.40;;
39400;SDS011;54391;50.000;7.360;2022-08-21T15:04:01;2.47;;;1.30;;
39400;SDS011;54391;50.000;7.360;2022-08-21T15:06:28;5.55;;;1.50;;